Time;durP1;ratioP1;P1;durP2;ratioP2;P2;SDS_P1;SDS_P2;PMS_P1;PMS_P2;Temp;Humidity;BMP_temperature;BMP_pressure;BME280_temperature;BME280_humidity;BME280_pressure;Samples;Min_cycle;Max_cycle;Signal;HPM_P1;HPM_P2
2023/10/13 00:01:51;;;;;;;1.17;0.90;;;14.20;99.90;;;;;;5049827;28;20226;-69
2023/10/13 00:04:22;;;;;;;1.13;0.97;;;14.20;99.90;;;;;;5041052;28;20182;-69
2023/10/13 00:06:49;;;;;;;1.53;1.00;;;14.20;99.90;;;;;;5049795;28;20315;-69
2023/10/13 00:09:16;;;;;;;3.23;1.30;;;14.20;99.90;;;;;;5044008;28;20279;-69
2023/10/13 00:11:45;;;;;;;1.93;1.17;;;14.20;99.90;;;;;;5082615;28;20616;-68
2023/10/13 00:14:15;;;;;;;1.40;1.00;;;14.10;99.90;;;;;;5049919;28;20212;-68
2023/10/13 00:17:00;;;;;;;2.03;1.07;;;14.10;99.90;;;;;;5048843;28;20194;-69
2023/10/13 00:19:37;;;;;;;1.83;1.20;;;14.10;99.90;;;;;;5045989;28;20533;-69
2023/10/13 00:22:09;;;;;;;1.53;0.90;;;14.10;99.90;;;;;;5043687;28;20205;-69
2023/10/13 00:24:42;;;;;;;1.17;1.00;;;14.00;99.90;;;;;;5047413;28;20292;-69
2023/10/13 00:27:24;;;;;;;1.70;1.10;;;14.00;99.90;;;;;;5049895;28;20201;-69
2023/10/13 00:30:04;;;;;;;1.50;0.90;;;14.00;99.90;;;;;;5047162;28;20534;-68
2023/10/13 00:32:31;;;;;;;1.20;1.10;;;13.90;99.90;;;;;;5051352;28;20193;-69
2023/10/13 00:35:05;;;;;;;4.50;1.10;;;13.90;99.90;;;;;;5045319;28;20205;-68
2023/10/13 00:37:41;;;;;;;0.97;0.80;;;13.90;99.90;;;;;;5035066;28;20617;-69
2023/10/13 00:40:19;;;;;;;2.10;1.13;;;13.90;99.90;;;;;;5078509;28;20549;-69
2023/10/13 00:42:50;;;;;;;2.07;1.30;;;13.80;99.90;;;;;;5043519;28;20277;-68
2023/10/13 00:45:17;;;;;;;1.73;1.10;;;13.80;99.90;;;;;;5045986;28;20311;-69
2023/10/13 00:47:49;;;;;;;1.90;1.10;;;13.70;99.90;;;;;;5049661;28;20233;-69
2023/10/13 00:50:17;;;;;;;1.43;1.03;;;13.70;99.90;;;;;;5038875;28;20202;-69
2023/10/13 00:52:50;;;;;;;1.13;0.90;;;13.70;99.90;;;;;;5081051;28;20693;-69
2023/10/13 00:55:22;;;;;;;0.90;0.90;;;13.70;99.90;;;;;;5048703;28;20205;-69
2023/10/13 00:57:54;;;;;;;1.57;1.10;;;13.70;99.90;;;;;;5079442;28;20290;-69
2023/10/13 01:00:25;;;;;;;0.93;0.67;;;13.70;99.90;;;;;;5048766;28;20185;-69
2023/10/13 01:02:56;;;;;;;1.50;0.77;;;13.70;99.90;;;;;;5048878;28;20653;-68
2023/10/13 01:05:25;;;;;;;0.73;0.67;;;13.80;99.90;;;;;;5079309;28;20236;-69
2023/10/13 01:07:54;;;;;;;0.70;0.70;;;13.80;99.90;;;;;;5039342;28;20198;-68
2023/10/13 01:10:25;;;;;;;1.30;0.90;;;13.80;99.90;;;;;;5052521;28;20190;-68
2023/10/13 01:12:53;;;;;;;0.70;0.70;;;13.70;99.90;;;;;;5078284;28;20216;-68
2023/10/13 01:15:21;;;;;;;1.90;0.90;;;13.70;99.90;;;;;;5052196;28;20225;-68
2023/10/13 01:17:49;;;;;;;2.33;1.17;;;13.60;99.90;;;;;;5074752;28;20197;-68
2023/10/13 01:20:24;;;;;;;1.70;0.90;;;13.60;99.90;;;;;;5052946;28;20221;-68
2023/10/13 01:22:56;;;;;;;1.23;0.80;;;13.60;99.90;;;;;;5058238;28;20190;-68
2023/10/13 01:25:27;;;;;;;0.83;0.83;;;13.60;99.90;;;;;;5052386;28;20570;-67
2023/10/13 01:27:54;;;;;;;0.90;0.70;;;13.60;99.90;;;;;;5080717;28;20773;-68
2023/10/13 01:30:24;;;;;;;0.80;0.80;;;13.60;99.90;;;;;;5059129;28;20618;-68
2023/10/13 01:32:53;;;;;;;2.80;1.00;;;13.60;99.90;;;;;;5084353;28;20271;-68
2023/10/13 01:35:25;;;;;;;1.77;0.60;;;13.60;99.90;;;;;;5051707;28;20212;-68
2023/10/13 01:37:51;;;;;;;1.73;0.90;;;13.60;99.90;;;;;;5039233;28;20196;-68
2023/10/13 01:40:20;;;;;;;1.77;1.20;;;13.50;99.90;;;;;;5050162;28;20268;-68
2023/10/13 01:42:55;;;;;;;1.63;1.00;;;13.50;99.90;;;;;;5062588;28;20280;-68
2023/10/13 01:45:26;;;;;;;2.27;1.00;;;13.50;99.90;;;;;;5048718;28;20217;-68
2023/10/13 01:47:52;;;;;;;0.97;0.87;;;13.40;99.90;;;;;;5053730;28;20284;-68
2023/10/13 01:50:21;;;;;;;1.37;0.93;;;13.40;99.90;;;;;;5053927;28;20261;-68
2023/10/13 01:52:47;;;;;;;1.33;0.97;;;13.40;99.90;;;;;;5047109;28;20197;-68
2023/10/13 01:55:14;;;;;;;2.90;1.07;;;13.30;99.90;;;;;;5052440;28;20579;-68
2023/10/13 01:57:42;;;;;;;1.93;0.90;;;13.30;99.90;;;;;;5083897;28;20208;-68
2023/10/13 02:00:18;;;;;;;1.87;1.20;;;13.20;99.90;;;;;;5084217;28;20197;-69
2023/10/13 02:02:45;;;;;;;1.37;1.00;;;13.20;99.90;;;;;;5054835;28;20609;-68
2023/10/13 02:05:15;;;;;;;5.17;1.50;;;13.20;99.90;;;;;;5082705;28;20196;-68
2023/10/13 02:07:45;;;;;;;2.30;1.10;;;13.10;99.90;;;;;;5041518;28;20197;-67
2023/10/13 02:10:13;;;;;;;2.40;1.20;;;13.10;99.90;;;;;;5039572;28;20200;-68
2023/10/13 02:12:42;;;;;;;2.97;1.40;;;13.10;99.90;;;;;;5050042;28;20659;-68
2023/10/13 02:15:20;;;;;;;1.50;1.17;;;13.10;99.90;;;;;;5052909;28;20208;-68
2023/10/13 02:17:51;;;;;;;2.10;1.17;;;13.10;99.90;;;;;;5082686;28;20652;-68
2023/10/13 02:20:22;;;;;;;2.37;1.10;;;13.00;99.90;;;;;;5083610;28;20205;-68
2023/10/13 02:22:49;;;;;;;1.57;1.10;;;13.00;99.90;;;;;;5051801;28;20197;-68
2023/10/13 02:25:34;;;;;;;1.13;1.00;;;13.10;99.90;;;;;;5046997;28;20204;-69
2023/10/13 02:28:00;;;;;;;1.40;1.03;;;13.10;99.90;;;;;;5048339;28;20730;-69
2023/10/13 02:30:29;;;;;;;1.43;1.20;;;13.10;99.90;;;;;;5090728;28;20200;-69
2023/10/13 02:32:55;;;;;;;1.60;1.20;;;13.00;99.90;;;;;;5050350;28;20197;-69
2023/10/13 02:35:30;;;;;;;3.37;1.30;;;12.90;99.90;;;;;;5046552;28;20198;-69
2023/10/13 02:38:06;;;;;;;1.50;1.40;;;12.90;99.90;;;;;;5043165;28;20536;-69
2023/10/13 02:40:35;;;;;;;1.27;1.10;;;12.90;99.90;;;;;;5047166;28;20573;-69
2023/10/13 02:43:04;;;;;;;1.93;1.30;;;12.90;99.90;;;;;;5084792;28;20195;-69
2023/10/13 02:45:36;;;;;;;2.27;1.27;;;12.80;99.90;;;;;;5047900;28;20199;-69
2023/10/13 02:48:17;;;;;;;2.17;1.20;;;12.90;99.90;;;;;;5051173;28;20236;-69
2023/10/13 02:50:45;;;;;;;1.27;1.17;;;12.90;99.90;;;;;;5083088;28;20205;-68
2023/10/13 02:53:18;;;;;;;1.60;0.90;;;12.80;99.90;;;;;;5077628;28;20221;-69
2023/10/13 02:55:52;;;;;;;3.00;1.10;;;12.60;99.90;;;;;;5046077;28;20197;-68
2023/10/13 02:58:20;;;;;;;4.43;1.37;;;12.70;99.90;;;;;;5042458;28;20200;-69
2023/10/13 03:00:47;;;;;;;0.90;0.83;;;12.70;99.90;;;;;;5051332;28;20274;-68
2023/10/13 03:03:18;;;;;;;2.03;1.13;;;12.70;99.90;;;;;;5047602;28;20197;-68
2023/10/13 03:05:45;;;;;;;1.60;0.90;;;12.70;99.90;;;;;;5051682;28;20216;-67
2023/10/13 03:08:25;;;;;;;2.20;1.20;;;12.70;99.90;;;;;;5039404;28;20199;-68
2023/10/13 03:10:54;;;;;;;4.63;1.40;;;12.70;99.90;;;;;;5054564;28;20303;-68
2023/10/13 03:13:21;;;;;;;1.67;1.10;;;12.60;99.90;;;;;;5048466;28;20303;-69
2023/10/13 03:15:49;;;;;;;1.87;1.30;;;12.60;99.90;;;;;;5081674;28;20296;-68
2023/10/13 03:18:18;;;;;;;1.20;0.97;;;12.60;99.90;;;;;;5047215;28;20225;-68
2023/10/13 03:20:50;;;;;;;2.03;0.87;;;12.60;99.90;;;;;;5051363;28;20196;-68
2023/10/13 03:23:17;;;;;;;2.67;1.20;;;12.50;99.90;;;;;;5045282;28;20237;-69
2023/10/13 03:25:49;;;;;;;1.63;1.00;;;12.50;99.90;;;;;;5046356;28;20199;-69
2023/10/13 03:28:17;;;;;;;1.37;1.00;;;12.50;99.90;;;;;;5040030;28;20250;-68
2023/10/13 03:30:44;;;;;;;3.00;1.30;;;12.40;99.90;;;;;;5053206;28;20742;-68
2023/10/13 03:33:14;;;;;;;2.57;1.10;;;12.40;99.90;;;;;;5051768;28;20212;-69
2023/10/13 03:35:43;;;;;;;1.50;0.87;;;12.40;99.90;;;;;;5045493;28;20200;-69
2023/10/13 03:38:17;;;;;;;2.03;1.10;;;12.50;99.90;;;;;;5041487;28;20261;-69
2023/10/13 03:41:07;;;;;;;1.17;0.93;;;12.60;99.90;;;;;;5049444;28;20207;-69
2023/10/13 03:43:44;;;;;;;1.77;1.20;;;12.70;99.90;;;;;;5048831;28;20189;-69
2023/10/13 03:46:12;;;;;;;1.57;0.90;;;12.70;99.90;;;;;;5050064;28;20525;-69
2023/10/13 03:48:52;;;;;;;3.03;1.10;;;12.70;99.90;;;;;;5042475;28;20341;-69
2023/10/13 03:51:19;;;;;;;1.83;1.33;;;12.70;99.90;;;;;;5043845;28;20220;-68
2023/10/13 03:53:53;;;;;;;1.37;1.13;;;12.70;99.90;;;;;;5049602;28;20213;-69
2023/10/13 03:56:38;;;;;;;2.03;1.10;;;12.60;99.90;;;;;;5049035;28;20217;-69
2023/10/13 03:59:17;;;;;;;2.00;1.13;;;12.60;99.90;;;;;;5050687;28;20602;-69
2023/10/13 04:01:46;;;;;;;1.17;1.03;;;12.60;99.90;;;;;;5053844;28;20383;-69
2023/10/13 04:04:34;;;;;;;3.37;1.10;;;12.60;99.90;;;;;;5059864;28;20195;-69
2023/10/13 04:07:25;;;;;;;2.03;1.20;;;12.50;99.90;;;;;;5046379;28;20285;-69
2023/10/13 04:15:36;;;;;;;2.00;1.10;;;12.40;99.90;;;;;;5049866;28;20282;-69
2023/10/13 04:18:14;;;;;;;1.70;1.07;;;12.40;99.90;;;;;;5044854;28;20280;-69
2023/10/13 04:20:46;;;;;;;2.90;1.10;;;12.40;99.90;;;;;;5082364;28;20199;-68
2023/10/13 04:23:22;;;;;;;4.50;1.53;;;12.40;99.90;;;;;;5037284;28;20275;-69
2023/10/13 04:26:21;;;;;;;0.90;0.77;;;12.40;99.90;;;;;;5046544;28;20183;-69
2023/10/13 04:28:53;;;;;;;1.53;1.10;;;12.40;99.90;;;;;;5041876;28;20188;-68
2023/10/13 04:31:46;;;;;;;1.27;0.83;;;12.40;99.90;;;;;;5063906;28;20203;-68
2023/10/13 04:34:27;;;;;;;1.87;1.07;;;12.60;99.90;;;;;;5052443;28;20213;-68
2023/10/13 04:37:22;;;;;;;1.47;0.90;;;12.60;99.90;;;;;;5043670;28;20287;-68
2023/10/13 04:39:44;;;;;;;1.30;0.80;;;12.70;99.90;;;;;;5044625;28;20287;-68
2023/10/13 04:42:27;;;;;;;1.87;0.97;;;12.60;99.90;;;;;;5047773;28;20189;-68
2023/10/13 04:45:00;;;;;;;1.90;0.80;;;12.70;99.90;;;;;;5047642;28;20257;-68
2023/10/13 04:47:29;;;;;;;1.40;0.87;;;12.60;99.90;;;;;;5044657;28;20209;-68
2023/10/13 04:50:00;;;;;;;1.03;0.80;;;12.70;99.90;;;;;;5049111;28;20592;-68
2023/10/13 04:53:01;;;;;;;1.17;0.80;;;12.70;99.90;;;;;;5079506;28;20216;-68
2023/10/13 04:55:43;;;;;;;2.07;1.20;;;12.80;99.90;;;;;;5048466;28;20212;-69
2023/10/13 04:58:45;;;;;;;1.47;1.30;;;12.80;99.90;;;;;;5047504;28;20300;-69
2023/10/13 05:01:39;;;;;;;2.20;1.30;;;12.70;99.90;;;;;;5050770;28;20735;-68
2023/10/13 05:04:30;;;;;;;1.47;1.37;;;12.80;99.90;;;;;;5060696;28;20210;-67
2023/10/13 05:46:20;;;;;;;2.07;1.20;;;12.40;99.90;;;;;;5038967;28;20194;-68
2023/10/13 05:49:09;;;;;;;0.90;0.90;;;12.40;99.90;;;;;;5046215;28;20296;-68
2023/10/13 05:51:47;;;;;;;1.80;1.13;;;12.30;99.90;;;;;;5050514;28;20732;-68
2023/10/13 06:30:04;;;;;;;1.20;1.10;;;12.60;99.90;;;;;;5056267;28;20259;-68
2023/10/13 06:32:33;;;;;;;1.53;1.40;;;12.60;99.90;;;;;;5080056;28;20288;-68
2023/10/13 06:35:05;;;;;;;2.10;1.27;;;12.60;99.90;;;;;;5047115;28;20208;-68
2023/10/13 06:37:34;;;;;;;1.90;1.40;;;12.60;99.90;;;;;;5048367;28;20218;-68
2023/10/13 06:40:06;;;;;;;1.50;1.40;;;12.60;99.90;;;;;;5045122;28;20254;-69
2023/10/13 06:42:34;;;;;;;1.70;1.60;;;12.60;99.90;;;;;;5043345;28;20300;-68
2023/10/13 06:45:08;;;;;;;1.87;1.30;;;12.60;99.90;;;;;;5047262;28;20196;-69
2023/10/13 06:47:41;;;;;;;1.60;1.40;;;12.60;99.90;;;;;;5042805;28;21101;-68
2023/10/13 06:50:15;;;;;;;1.67;1.50;;;12.60;99.90;;;;;;5048138;28;20786;-68
2023/10/13 06:52:42;;;;;;;2.10;1.80;;;12.60;99.90;;;;;;5049015;28;20668;-68
2023/10/13 06:55:10;;;;;;;3.47;2.17;;;12.60;99.90;;;;;;5076138;28;20559;-69
2023/10/13 06:57:42;;;;;;;1.73;1.53;;;12.70;99.90;;;;;;5049535;28;20193;-68
2023/10/13 07:00:19;;;;;;;3.77;2.20;;;12.70;99.90;;;;;;5045429;28;20667;-68
2023/10/13 07:02:48;;;;;;;5.03;2.33;;;12.70;99.90;;;;;;5050696;28;20218;-69
2023/10/13 07:05:20;;;;;;;4.80;2.40;;;12.80;99.90;;;;;;5040907;28;20184;-69
2023/10/13 07:07:48;;;;;;;4.27;2.43;;;12.80;99.90;;;;;;5048744;28;20289;-68
2023/10/13 07:10:16;;;;;;;6.33;2.30;;;13.00;99.90;;;;;;5046367;28;20223;-69
2023/10/13 07:12:43;;;;;;;2.50;1.90;;;12.80;99.90;;;;;;5049948;28;20620;-68
2023/10/13 07:15:19;;;;;;;2.90;1.93;;;12.80;99.90;;;;;;5081904;28;20314;-69
2023/10/13 07:17:54;;;;;;;2.13;1.83;;;12.80;99.90;;;;;;5049356;28;20200;-68
2023/10/13 07:20:24;;;;;;;3.80;2.53;;;12.90;99.90;;;;;;5040199;28;20214;-68
2023/10/13 07:23:02;;;;;;;3.57;2.47;;;12.90;99.90;;;;;;5048472;28;20208;-69
2023/10/13 07:25:32;;;;;;;5.87;3.37;;;12.90;99.90;;;;;;5047933;28;20286;-68
2023/10/13 07:28:00;;;;;;;6.70;3.43;;;12.90;99.90;;;;;;5046892;28;20564;-69
2023/10/13 07:30:28;;;;;;;6.23;2.80;;;12.90;99.90;;;;;;5039993;28;20270;-68
2023/10/13 07:32:59;;;;;;;4.53;2.67;;;12.90;99.90;;;;;;5070663;28;20232;-68
2023/10/13 07:35:26;;;;;;;6.30;3.00;;;12.90;99.90;;;;;;5045025;28;20223;-68
2023/10/13 07:37:55;;;;;;;3.30;2.60;;;13.00;99.90;;;;;;5043863;28;20253;-68
2023/10/13 07:40:39;;;;;;;4.60;2.23;;;13.00;99.90;;;;;;5075389;28;20567;-69
2023/10/13 07:43:10;;;;;;;5.80;2.47;;;13.00;99.90;;;;;;5079128;28;20209;-68
2023/10/13 07:45:40;;;;;;;4.53;2.67;;;13.10;99.90;;;;;;5080520;28;20313;-69
2023/10/13 07:48:16;;;;;;;4.60;2.37;;;13.10;99.90;;;;;;5046996;28;20201;-69
2023/10/13 07:50:45;;;;;;;2.53;2.00;;;13.10;99.90;;;;;;5046191;28;20298;-69
2023/10/13 07:53:22;;;;;;;5.97;2.30;;;13.10;99.90;;;;;;5042169;28;20201;-69
2023/10/13 07:55:54;;;;;;;3.60;2.20;;;13.10;99.90;;;;;;5047533;28;20320;-69
2023/10/13 07:58:24;;;;;;;3.27;2.03;;;13.20;99.90;;;;;;5043431;28;20248;-69
2023/10/13 08:01:06;;;;;;;3.07;1.77;;;13.30;99.90;;;;;;5044090;28;20191;-69
2023/10/13 08:06:26;;;;;;;2.90;1.90;;;13.40;99.90;;;;;;5042590;28;20651;-68
2023/10/13 08:09:06;;;;;;;2.70;2.07;;;13.40;99.90;;;;;;5049687;28;20196;-68
2023/10/13 08:11:36;;;;;;;5.03;2.60;;;13.50;99.90;;;;;;5047223;28;20998;-68
2023/10/13 08:14:22;;;;;;;4.30;2.20;;;13.50;99.90;;;;;;5052831;28;20591;-68
2023/10/13 08:16:59;;;;;;;6.87;2.50;;;13.50;99.90;;;;;;5048379;28;20200;-68
2023/10/13 08:19:38;;;;;;;4.07;2.23;;;13.50;99.90;;;;;;5046299;28;20274;-68
2023/10/13 08:22:23;;;;;;;3.80;2.43;;;13.50;99.90;;;;;;5049502;28;20207;-68
2023/10/13 08:27:48;;;;;;;4.23;2.50;;;13.50;99.90;;;;;;5048043;28;20682;-67
2023/10/13 08:30:29;;;;;;;5.50;2.60;;;13.50;99.90;;;;;;5042761;28;20196;-68
2023/10/13 08:32:56;;;;;;;7.83;2.73;;;13.50;99.90;;;;;;5044526;28;20231;-68
2023/10/13 08:35:34;;;;;;;5.57;2.60;;;13.60;99.90;;;;;;5046483;28;20249;-68
2023/10/13 08:38:13;;;;;;;4.90;2.57;;;13.60;99.90;;;;;;5041159;28;20195;-68
2023/10/13 08:41:28;;;;;;;3.20;2.03;;;13.70;99.90;;;;;;5057518;28;20204;-68
2023/10/13 08:43:50;;;;;;;3.77;1.80;;;13.60;99.90;;;;;;5043993;28;20513;-68
2023/10/13 08:46:28;;;;;;;4.33;2.10;;;13.70;99.90;;;;;;5072787;28;20192;-68
2023/10/13 08:49:09;;;;;;;1.80;1.70;;;13.70;99.90;;;;;;5045628;28;20241;-68
2023/10/13 08:51:48;;;;;;;2.60;2.10;;;13.80;99.90;;;;;;5042707;28;20201;-68
2023/10/13 08:54:33;;;;;;;2.63;1.87;;;13.80;99.90;;;;;;5040486;28;20588;-68
2023/10/13 08:57:19;;;;;;;3.77;2.40;;;13.80;99.90;;;;;;5056826;28;20205;-68
2023/10/13 08:59:56;;;;;;;3.90;2.10;;;13.80;99.90;;;;;;5041684;28;20185;-66
2023/10/13 09:05:41;;;;;;;7.10;2.40;;;13.90;99.90;;;;;;5044220;28;20245;-67
2023/10/13 09:08:08;;;;;;;3.60;2.40;;;13.90;99.90;;;;;;5038101;28;20197;-67
2023/10/13 09:10:44;;;;;;;6.90;2.70;;;13.90;99.90;;;;;;5043780;28;20228;-68
2023/10/13 09:13:18;;;;;;;7.67;3.20;;;13.80;99.90;;;;;;5031893;28;20196;-67
2023/10/13 09:16:01;;;;;;;5.60;2.70;;;13.80;99.90;;;;;;5044257;28;20701;-68
2023/10/13 09:18:46;;;;;;;4.60;2.27;;;13.80;99.90;;;;;;5044596;28;20272;-68
2023/10/13 09:26:44;;;;;;;6.53;2.90;;;13.70;99.90;;;;;;5048270;28;20212;-68
2023/10/13 09:29:18;;;;;;;3.77;2.07;;;13.70;99.90;;;;;;5052136;28;20208;-68
2023/10/13 09:32:01;;;;;;;6.47;2.87;;;13.70;99.90;;;;;;5050249;28;20188;-68
2023/10/13 09:34:30;;;;;;;9.33;2.73;;;13.70;99.90;;;;;;5047309;28;20618;-68
2023/10/13 09:36:59;;;;;;;8.60;2.60;;;13.80;99.90;;;;;;5077346;28;20215;-68
2023/10/13 09:39:48;;;;;;;6.13;2.93;;;13.70;99.90;;;;;;5048548;28;20210;-68
2023/10/13 09:42:18;;;;;;;7.27;3.30;;;13.80;99.90;;;;;;5041609;28;20194;-68
2023/10/13 09:44:51;;;;;;;6.67;3.13;;;13.70;99.90;;;;;;5052016;28;20261;-68
2023/10/13 09:47:29;;;;;;;8.50;3.17;;;13.70;99.90;;;;;;5047136;28;20568;-68
2023/10/13 09:50:05;;;;;;;10.27;3.60;;;13.70;99.90;;;;;;5046182;28;20227;-68
2023/10/13 09:52:32;;;;;;;5.53;3.07;;;13.70;99.90;;;;;;5043603;28;20292;-68
2023/10/13 09:55:13;;;;;;;3.77;2.63;;;13.70;99.90;;;;;;5050518;28;20605;-68
2023/10/13 09:57:45;;;;;;;5.20;2.57;;;13.60;99.90;;;;;;5040815;28;20192;-68
2023/10/13 10:03:14;;;;;;;8.03;3.03;;;13.60;99.90;;;;;;5046854;28;20207;-67
2023/10/13 10:05:49;;;;;;;4.90;2.80;;;13.60;99.90;;;;;;5060892;28;20199;-67
2023/10/13 10:08:31;;;;;;;6.60;2.83;;;13.60;99.90;;;;;;5039441;28;20612;-68
2023/10/13 10:12:01;;;;;;;9.50;3.17;;;13.60;99.90;;;;;;5044828;28;20308;-68
2023/10/13 10:14:56;;;;;;;7.50;2.80;;;13.50;99.90;;;;;;4985407;28;20210;-68
2023/10/13 10:17:29;;;;;;;7.23;2.83;;;13.60;99.90;;;;;;4987958;28;20232;-68
2023/10/13 10:20:06;;;;;;;5.30;2.70;;;13.60;99.90;;;;;;5033358;28;20214;-68
2023/10/13 10:22:36;;;;;;;5.97;2.60;;;13.60;99.90;;;;;;5050496;28;20199;-69
2023/10/13 10:25:06;;;;;;;4.93;2.43;;;13.70;99.90;;;;;;5047851;28;20610;-68
2023/10/13 10:27:35;;;;;;;7.03;2.83;;;13.70;99.90;;;;;;5041516;28;20195;-67
2023/10/13 10:30:04;;;;;;;4.80;2.50;;;13.80;99.90;;;;;;5036946;28;20187;-69
2023/10/13 10:32:40;;;;;;;8.43;3.30;;;13.80;99.90;;;;;;5048861;28;20208;-69
2023/10/13 10:35:29;;;;;;;5.73;2.47;;;13.80;99.90;;;;;;5048862;28;20203;-69
2023/10/13 10:38:16;;;;;;;9.47;3.20;;;13.80;99.90;;;;;;5043313;28;20276;-68
2023/10/13 10:40:57;;;;;;;5.23;2.80;;;14.20;99.90;;;;;;5048416;28;20195;-68
2023/10/13 10:43:41;;;;;;;7.07;2.63;;;14.00;99.90;;;;;;5044885;28;20580;-68
2023/10/13 10:46:10;;;;;;;6.60;2.80;;;14.00;99.90;;;;;;5047168;28;20226;-68
2023/10/13 10:48:42;;;;;;;8.10;3.03;;;14.00;99.90;;;;;;5047648;28;20231;-68
2023/10/13 10:51:21;;;;;;;6.13;2.77;;;14.10;99.90;;;;;;5046358;28;20258;-68
2023/10/13 10:53:49;;;;;;;3.23;2.23;;;14.10;99.90;;;;;;5042251;28;20687;-67
2023/10/13 10:56:22;;;;;;;3.30;1.90;;;14.20;99.90;;;;;;5044235;28;20281;-68
2023/10/13 10:58:55;;;;;;;2.80;2.00;;;14.20;99.90;;;;;;5042437;28;20202;-68
2023/10/13 11:01:23;;;;;;;5.23;2.10;;;14.30;99.90;;;;;;5045896;28;20301;-69
2023/10/13 11:04:07;;;;;;;3.63;1.70;;;14.30;99.90;;;;;;5047798;28;20202;-68
2023/10/13 11:06:38;;;;;;;5.40;1.90;;;14.40;99.90;;;;;;5061472;28;20209;-68
2023/10/13 11:09:18;;;;;;;4.30;1.60;;;14.40;99.90;;;;;;5035567;28;20538;-68
2023/10/13 11:11:52;;;;;;;4.97;1.67;;;14.40;99.90;;;;;;5043458;28;20189;-69
2023/10/13 11:14:24;;;;;;;3.03;1.53;;;14.50;99.90;;;;;;5044720;28;20185;-69
2023/10/13 11:16:54;;;;;;;3.20;1.60;;;14.50;99.90;;;;;;5041955;28;20710;-68
2023/10/13 11:19:25;;;;;;;3.90;1.93;;;14.60;99.90;;;;;;5042788;28;20288;-69
2023/10/13 11:21:54;;;;;;;6.13;2.10;;;14.60;99.90;;;;;;5047239;28;20193;-69
2023/10/13 11:24:22;;;;;;;3.97;2.27;;;14.60;99.90;;;;;;5043938;28;20257;-69
2023/10/13 11:26:54;;;;;;;7.87;3.03;;;14.70;99.90;;;;;;5041956;28;20194;-68
2023/10/13 11:29:34;;;;;;;7.77;3.30;;;14.70;99.90;;;;;;5070298;28;20666;-68
2023/10/13 11:32:02;;;;;;;7.97;3.03;;;14.70;99.90;;;;;;5043790;28;20206;-68
2023/10/13 11:34:39;;;;;;;7.67;2.87;;;14.70;99.90;;;;;;5077715;28;20634;-68
2023/10/13 11:39:48;;;;;;;7.87;2.80;;;14.80;99.90;;;;;;5038625;28;20628;-69
2023/10/13 11:42:17;;;;;;;4.73;2.47;;;14.80;99.90;;;;;;5045247;28;20301;-68
2023/10/13 11:44:45;;;;;;;5.37;2.13;;;14.80;99.90;;;;;;5043248;28;20253;-69
2023/10/13 11:49:59;;;;;;;5.40;2.63;;;14.80;99.90;;;;;;5041796;28;20733;-67
2023/10/13 11:52:30;;;;;;;4.77;2.40;;;14.80;99.90;;;;;;5046141;28;20300;-68
2023/10/13 11:54:57;;;;;;;4.80;1.90;;;14.80;99.90;;;;;;5046134;28;20193;-68
2023/10/13 11:57:24;;;;;;;4.67;2.77;;;14.80;99.90;;;;;;5045039;28;20221;-68
2023/10/13 12:00:16;;;;;;;5.67;3.00;;;14.80;99.90;;;;;;5033747;28;20212;-68
2023/10/13 12:05:37;;;;;;;4.77;2.90;;;14.90;99.90;;;;;;5045213;28;20262;-68
2023/10/13 12:08:07;;;;;;;8.53;3.10;;;14.90;99.90;;;;;;5043586;28;20194;-68
2023/10/13 12:10:39;;;;;;;7.20;3.63;;;14.90;99.90;;;;;;5045573;28;20214;-68
2023/10/13 12:13:10;;;;;;;6.63;3.20;;;15.00;99.90;;;;;;5045094;28;20565;-68
2023/10/13 12:15:48;;;;;;;7.20;3.40;;;15.10;99.90;;;;;;5047279;28;20273;-68
2023/10/13 12:18:16;;;;;;;7.60;3.67;;;15.20;99.90;;;;;;5042749;28;20202;-68
2023/10/13 12:20:45;;;;;;;7.97;4.10;;;15.20;99.90;;;;;;5037469;28;20600;-68
2023/10/13 12:23:17;;;;;;;13.70;5.50;;;15.30;99.90;;;;;;5042794;28;20678;-68
2023/10/13 12:25:59;;;;;;;9.13;4.10;;;15.40;99.90;;;;;;5034931;28;20197;-68
2023/10/13 12:28:28;;;;;;;8.73;3.83;;;15.40;99.90;;;;;;5043158;28;20202;-68
2023/10/13 12:30:58;;;;;;;6.80;3.60;;;15.40;99.90;;;;;;5038700;28;20567;-67
2023/10/13 12:33:26;;;;;;;6.87;3.60;;;15.40;99.90;;;;;;5046481;28;20209;-68
2023/10/13 12:49:52;;;;;;;8.17;3.53;;;15.40;99.90;;;;;;5045718;28;20312;-68
2023/10/13 12:52:19;;;;;;;5.17;3.40;;;15.40;99.90;;;;;;5049926;28;20199;-68
2023/10/13 12:54:58;;;;;;;8.83;4.13;;;15.40;99.90;;;;;;5043734;28;20696;-68
2023/10/13 12:57:26;;;;;;;8.00;3.93;;;15.40;99.90;;;;;;5046835;28;20256;-68
2023/10/13 12:59:53;;;;;;;6.67;3.70;;;15.50;99.90;;;;;;5036873;28;22298;-68
2023/10/13 13:02:24;;;;;;;7.13;3.77;;;15.50;99.90;;;;;;5043161;28;20197;-68
2023/10/13 13:04:56;;;;;;;8.17;3.50;;;15.50;99.90;;;;;;5045391;28;20233;-68
2023/10/13 13:07:29;;;;;;;8.33;3.63;;;15.50;99.90;;;;;;5038707;28;20550;-67
2023/10/13 13:09:59;;;;;;;8.47;4.57;;;15.50;99.90;;;;;;5044223;28;20213;-68
2023/10/13 13:12:28;;;;;;;6.47;3.57;;;15.50;99.90;;;;;;5073176;28;20201;-68
2023/10/13 13:14:55;;;;;;;8.80;4.50;;;15.50;99.90;;;;;;5043584;28;20217;-68
2023/10/13 13:17:24;;;;;;;7.87;3.90;;;15.50;99.90;;;;;;5046353;28;20332;-69
2023/10/13 13:19:51;;;;;;;6.57;4.10;;;15.60;99.90;;;;;;5039457;28;20312;-69
2023/10/13 13:22:18;;;;;;;10.13;4.13;;;15.60;99.90;;;;;;5059428;28;20252;-69
2023/10/13 13:24:47;;;;;;;6.33;3.77;;;15.60;99.90;;;;;;5045625;28;20194;-68
2023/10/13 13:27:19;;;;;;;5.60;3.50;;;15.60;99.90;;;;;;5071757;28;20201;-69
2023/10/13 13:29:47;;;;;;;10.27;4.60;;;15.60;99.90;;;;;;5042691;28;20629;-69
2023/10/13 13:32:18;;;;;;;8.37;3.87;;;15.60;99.90;;;;;;5046592;28;20205;-69
2023/10/13 13:34:54;;;;;;;7.47;3.80;;;15.60;99.90;;;;;;5045077;28;20189;-68
2023/10/13 13:37:21;;;;;;;10.20;4.63;;;15.70;99.90;;;;;;5045758;28;20300;-68
2023/10/13 13:39:52;;;;;;;4.83;4.00;;;15.70;99.90;;;;;;5041672;28;20225;-68
2023/10/13 13:42:20;;;;;;;6.53;4.03;;;15.70;99.90;;;;;;5042803;28;20220;-68
2023/10/13 13:44:47;;;;;;;6.60;4.17;;;15.70;99.90;;;;;;5074995;28;20824;-68
2023/10/13 13:47:14;;;;;;;5.47;3.67;;;15.70;99.90;;;;;;5044044;28;20198;-67
2023/10/13 13:49:50;;;;;;;8.77;4.87;;;15.70;99.90;;;;;;5042792;28;20717;-68
2023/10/13 13:52:21;;;;;;;8.43;5.07;;;15.70;99.90;;;;;;5044192;28;20190;-67
2023/10/13 13:54:48;;;;;;;10.73;5.50;;;15.70;99.90;;;;;;5043729;28;20626;-68
2023/10/13 13:57:17;;;;;;;7.27;4.70;;;15.70;99.90;;;;;;5041846;28;20237;-68
2023/10/13 13:59:45;;;;;;;13.40;6.23;;;15.70;99.90;;;;;;5044632;28;20202;-68
2023/10/13 14:02:20;;;;;;;9.63;5.80;;;15.70;99.90;;;;;;5042925;28;20285;-68
2023/10/13 14:04:50;;;;;;;11.67;6.77;;;15.70;99.90;;;;;;5040525;28;20197;-68
2023/10/13 14:07:21;;;;;;;9.77;5.90;;;15.70;99.90;;;;;;5045119;28;20327;-69
2023/10/13 14:09:51;;;;;;;12.17;6.50;;;15.70;99.90;;;;;;5047232;28;20661;-69
2023/10/13 14:12:36;;;;;;;9.83;5.80;;;15.70;99.90;;;;;;5041819;28;20217;-69
2023/10/13 14:15:03;;;;;;;15.43;6.30;;;15.70;99.90;;;;;;5045659;28;20219;-68
2023/10/13 14:17:35;;;;;;;12.37;7.40;;;15.70;99.90;;;;;;5047231;28;20214;-67
2023/10/13 14:20:09;;;;;;;11.73;7.20;;;15.70;99.90;;;;;;5049737;28;20225;-68
2023/10/13 14:22:38;;;;;;;10.43;6.70;;;15.70;99.90;;;;;;5087386;28;20205;-67
2023/10/13 14:25:08;;;;;;;10.20;6.47;;;15.70;99.90;;;;;;5049836;28;20215;-68
2023/10/13 14:27:36;;;;;;;13.57;7.30;;;15.70;99.90;;;;;;5051525;28;20200;-69
2023/10/13 14:30:03;;;;;;;12.00;6.73;;;15.70;99.90;;;;;;5055817;28;20651;-69
2023/10/13 14:32:31;;;;;;;12.97;6.50;;;15.80;99.90;;;;;;5051968;28;20272;-69
2023/10/13 14:35:00;;;;;;;11.37;6.80;;;15.70;99.90;;;;;;5049697;28;20206;-68
2023/10/13 14:37:29;;;;;;;16.73;9.23;;;15.80;99.90;;;;;;5056498;28;20301;-68
2023/10/13 14:39:59;;;;;;;15.30;8.37;;;15.80;99.90;;;;;;5047488;28;20206;-69
2023/10/13 14:42:27;;;;;;;16.63;8.73;;;15.80;99.90;;;;;;5080429;28;20293;-69
2023/10/13 14:44:56;;;;;;;12.30;7.40;;;15.80;99.90;;;;;;5050872;28;20646;-69
2023/10/13 14:47:24;;;;;;;12.13;7.13;;;15.80;99.90;;;;;;5051065;28;20198;-68
2023/10/13 14:49:55;;;;;;;14.67;8.20;;;15.80;99.90;;;;;;5047614;28;20583;-68
2023/10/13 14:52:22;;;;;;;15.53;7.17;;;15.80;99.90;;;;;;5038835;28;20256;-67
2023/10/13 14:54:55;;;;;;;14.83;8.43;;;15.80;99.90;;;;;;5043162;28;20214;-68
2023/10/13 14:57:25;;;;;;;13.13;7.50;;;15.80;99.90;;;;;;5045797;28;20822;-68
2023/10/13 14:59:53;;;;;;;13.63;7.50;;;15.80;99.90;;;;;;5080372;28;20190;-69
2023/10/13 15:02:20;;;;;;;18.47;8.77;;;15.80;99.90;;;;;;5042590;28;20205;-68
2023/10/13 15:04:49;;;;;;;13.37;8.00;;;15.80;99.90;;;;;;5047638;28;20282;-68
2023/10/13 15:07:17;;;;;;;13.57;7.60;;;15.80;99.90;;;;;;5047693;28;20190;-68
2023/10/13 15:09:44;;;;;;;15.13;8.37;;;15.80;99.90;;;;;;5045304;28;20205;-69
2023/10/13 15:12:11;;;;;;;26.00;10.10;;;15.80;99.90;;;;;;5050165;28;20222;-70
2023/10/13 15:14:42;;;;;;;13.43;7.93;;;15.80;99.90;;;;;;5050450;28;20190;-69
2023/10/13 15:17:10;;;;;;;15.97;8.83;;;15.80;99.90;;;;;;5029941;28;20208;-68